Time;durP1;ratioP1;P1;durP2;ratioP2;P2;SDS_P1;SDS_P2;PMS_P1;PMS_P2;Temp;Humidity;BMP_temperature;BMP_pressure;BME280_temperature;BME280_humidity;BME280_pressure;Samples;Min_cycle;Max_cycle;Signal;HPM_P1;HPM_P2
2021/12/19 00:02:05;;;;;;;12.80;2.80;;;;;;;9.92;77.13;101655.06;5056206;28;20183;-71
2021/12/19 00:04:16;;;;;;;8.10;2.33;;;;;;;9.95;77.14;101664.75;5070128;28;20202;-70
2021/12/19 00:09:27;;;;;;;11.10;3.10;;;;;;;9.84;77.31;101645.63;5059260;28;20162;-70
2021/12/19 00:11:53;;;;;;;11.97;3.27;;;;;;;9.84;76.69;101627.81;5044783;28;20179;-71
2021/12/19 00:14:19;;;;;;;10.93;2.60;;;;;;;9.99;76.34;101634.38;5063604;28;20214;-71
2021/12/19 00:16:45;;;;;;;13.07;2.77;;;;;;;9.89;77.07;101632.97;5063807;28;20247;-71
2021/12/19 00:19:10;;;;;;;15.90;3.13;;;;;;;9.89;76.95;101638.31;5056779;28;20258;-70
2021/12/19 00:21:36;;;;;;;14.00;3.03;;;;;;;10.05;76.45;101634.16;5055757;28;20547;-72
2021/12/19 00:24:01;;;;;;;10.00;3.10;;;;;;;10.02;77.08;101623.59;5055881;28;20202;-71
2021/12/19 00:26:26;;;;;;;11.20;2.90;;;;;;;9.78;77.30;101653.84;5055847;28;20207;-72
2021/12/19 00:28:51;;;;;;;8.10;2.87;;;;;;;10.00;77.06;101633.44;5056173;28;20175;-71
2021/12/19 00:31:17;;;;;;;8.03;2.67;;;;;;;10.11;76.42;101620.59;5055539;28;20630;-71
2021/12/19 00:33:43;;;;;;;13.53;3.20;;;;;;;9.94;76.42;101631.00;5039360;28;984804;-70
2021/12/19 00:36:08;;;;;;;8.03;2.47;;;;;;;9.82;76.76;101651.00;5053749;22;20630;-72
2021/12/19 00:38:34;;;;;;;8.37;2.63;;;;;;;9.89;76.88;101625.00;5036407;28;20183;-70
2021/12/19 00:41:01;;;;;;;8.63;2.67;;;;;;;9.70;76.73;101633.69;5054346;28;20256;-71
2021/12/19 00:43:37;;;;;;;9.10;2.90;;;;;;;9.56;77.30;101617.31;5054123;28;20176;-71
2021/12/19 00:46:07;;;;;;;7.97;3.33;;;;;;;9.95;77.05;101617.63;5053997;28;20348;-72
2021/12/19 00:48:45;;;;;;;9.37;3.00;;;;;;;10.01;76.92;101628.06;5036105;28;20183;-70
2021/12/19 00:51:16;;;;;;;7.17;2.60;;;;;;;9.94;76.33;101625.69;5036398;28;20175;-70
2021/12/19 00:53:43;;;;;;;11.37;2.80;;;;;;;10.00;75.87;101614.78;5019848;28;20172;-71
2021/12/19 00:56:09;;;;;;;8.83;2.77;;;;;;;9.82;76.50;101600.34;5036228;28;20265;-71
2021/12/19 00:58:34;;;;;;;5.37;2.33;;;;;;;9.86;75.95;101617.09;5053687;28;20178;-71
2021/12/19 01:01:01;;;;;;;7.43;2.77;;;;;;;9.96;75.54;101608.69;5053702;28;20179;-70
2021/12/19 01:03:26;;;;;;;10.17;2.30;;;;;;;10.15;75.81;101606.19;5036110;28;20183;-70
2021/12/19 01:05:53;;;;;;;7.60;2.30;;;;;;;10.06;75.62;101617.25;5053973;28;20257;-70
2021/12/19 01:08:18;;;;;;;8.70;2.43;;;;;;;10.06;75.50;101609.22;5053500;28;20175;-70
2021/12/19 01:10:45;;;;;;;9.97;2.87;;;;;;;10.07;75.37;101616.31;5053130;28;20180;-70
2021/12/19 01:13:11;;;;;;;11.37;2.53;;;;;;;10.27;75.39;101613.75;5053402;28;20263;-70
2021/12/19 01:15:36;;;;;;;6.47;2.30;;;;;;;10.30;74.71;101618.09;5035519;28;20783;-70
2021/12/19 01:18:03;;;;;;;9.17;2.40;;;;;;;10.29;75.52;101632.38;5053439;28;20188;-70
2021/12/19 01:20:30;;;;;;;6.17;2.53;;;;;;;9.98;76.40;101617.50;5035797;28;20287;-70
2021/12/19 01:22:56;;;;;;;7.03;2.70;;;;;;;10.28;75.84;101654.66;5035549;28;20175;-70
2021/12/19 01:25:21;;;;;;;6.83;2.90;;;;;;;10.02;75.66;101656.47;5035499;28;20572;-70
2021/12/19 01:27:47;;;;;;;7.30;2.20;;;;;;;9.98;76.31;101670.84;5035610;28;20309;-71
2021/12/19 01:30:12;;;;;;;14.93;2.80;;;;;;;10.07;76.05;101668.78;5053345;28;20217;-71
2021/12/19 01:32:39;;;;;;;7.97;2.37;;;;;;;9.96;74.84;101634.50;5053513;28;20172;-71
2021/12/19 01:35:06;;;;;;;9.20;2.50;;;;;;;10.72;74.35;101655.56;5035318;28;20676;-70
2021/12/19 01:37:31;;;;;;;7.93;2.33;;;;;;;9.89;75.90;101627.66;5053402;28;20179;-70
2021/12/19 01:39:57;;;;;;;10.13;3.00;;;;;;;10.07;75.65;101628.78;5035919;28;20194;-70
2021/12/19 01:42:29;;;;;;;11.23;2.43;;;;;;;10.39;74.34;101609.72;5053192;28;20183;-70
2021/12/19 01:44:55;;;;;;;9.50;2.40;;;;;;;10.45;74.47;101621.97;5035447;28;20195;-71
2021/12/19 01:47:21;;;;;;;9.80;2.37;;;;;;;10.13;75.05;101626.75;5053773;28;20183;-71
2021/12/19 01:49:46;;;;;;;6.63;1.90;;;;;;;10.13;75.52;101629.41;5035910;28;20179;-71
2021/12/19 01:52:11;;;;;;;6.10;2.40;;;;;;;10.03;76.55;101631.56;5053958;28;20175;-71
2021/12/19 01:54:36;;;;;;;9.90;2.27;;;;;;;10.48;75.77;101645.88;5036501;28;20202;-71
2021/12/19 01:57:02;;;;;;;5.37;2.00;;;;;;;9.93;76.72;101638.16;5054344;28;20176;-71
2021/12/19 01:59:27;;;;;;;5.67;2.47;;;;;;;9.49;77.26;101638.91;5035278;28;20652;-70
2021/12/19 02:01:54;;;;;;;8.50;2.70;;;;;;;9.88;77.37;101641.91;5035364;28;20654;-70
2021/12/19 02:04:26;;;;;;;9.30;2.63;;;;;;;10.29;76.42;101627.03;5035224;28;20539;-71
2021/12/19 02:06:51;;;;;;;7.73;2.57;;;;;;;10.40;75.32;101616.78;5035819;28;20238;-71
2021/12/19 02:09:17;;;;;;;6.70;2.90;;;;;;;9.88;77.11;101620.59;5018587;28;20207;-70
2021/12/19 02:11:43;;;;;;;4.23;2.00;;;;;;;9.81;77.18;101597.75;5052954;28;20286;-70
2021/12/19 02:14:10;;;;;;;4.10;1.90;;;;;;;9.74;77.52;101590.91;5052746;28;20267;-70
2021/12/19 02:16:39;;;;;;;5.77;2.37;;;;;;;9.87;77.42;101578.84;5052789;28;20172;-70
2021/12/19 02:19:06;;;;;;;5.83;2.40;;;;;;;9.82;76.94;101581.69;5053010;28;20187;-70
2021/12/19 02:21:32;;;;;;;6.83;2.47;;;;;;;9.98;76.97;101582.84;5035422;28;20180;-69
2021/12/19 02:23:58;;;;;;;5.67;2.37;;;;;;;9.42;78.76;101587.63;5039750;28;20180;-70
2021/12/19 02:26:24;;;;;;;6.13;1.93;;;;;;;9.96;76.96;101576.69;5038706;28;20203;-70
2021/12/19 02:28:49;;;;;;;3.30;1.67;;;;;;;9.72;78.02;101590.97;5039122;28;20543;-70
2021/12/19 02:31:14;;;;;;;4.60;1.77;;;;;;;9.71;78.48;101591.91;5056572;28;20206;-70
2021/12/19 02:33:43;;;;;;;4.13;1.70;;;;;;;9.82;77.86;101581.69;5056815;28;20179;-71
2021/12/19 02:48:10;;;;;;;5.27;2.27;;;;;;;9.33;79.54;101572.84;5040536;28;20179;-70
2021/12/19 02:49:30;;;;;;;7.40;2.43;;;;;;;9.51;79.26;101554.44;5041343;28;20379;-70
2021/12/19 02:51:55;;;;;;;5.80;2.33;;;;;;;9.72;78.47;101556.31;5038421;28;20172;-71
2021/12/19 02:54:22;;;;;;;4.07;1.47;;;;;;;9.80;77.85;101553.34;5038291;28;20178;-70
2021/12/19 02:56:47;;;;;;;5.77;2.00;;;;;;;9.71;78.63;101543.91;5038136;28;20255;-70
2021/12/19 02:59:13;;;;;;;5.37;1.90;;;;;;;9.96;77.66;101551.81;5038530;28;20272;-70
2021/12/19 03:01:38;;;;;;;6.23;2.17;;;;;;;9.77;78.32;101549.00;5056224;28;20189;-71
2021/12/19 03:04:06;;;;;;;10.10;2.20;;;;;;;9.50;80.79;101582.88;5037965;28;20707;-70
2021/12/19 03:06:31;;;;;;;5.37;1.80;;;;;;;9.76;79.70;101573.06;5038385;28;20628;-70
2021/12/19 03:09:03;;;;;;;7.93;2.13;;;;;;;9.26;81.51;101567.78;5038022;28;20172;-70
2021/12/19 03:12:00;;;;;;;5.20;2.10;;;;;;;8.65;84.45;101584.09;5022223;28;20164;-69
2021/12/19 03:19:44;;;;;;;6.17;1.90;;;;;;;8.65;84.48;101601.84;5040849;28;20163;-70
2021/12/19 03:22:09;;;;;;;7.00;2.07;;;;;;;8.95;83.62;101576.88;5037713;28;20179;-70
2021/12/19 03:24:34;;;;;;;7.57;1.83;;;;;;;9.05;82.82;101570.28;5055401;28;20199;-70
2021/12/19 03:27:00;;;;;;;5.93;1.63;;;;;;;9.01;82.41;101546.50;5038010;28;20206;-70
2021/12/19 03:29:25;;;;;;;4.57;1.83;;;;;;;8.72;83.56;101553.69;5037667;28;20171;-70
2021/12/19 03:31:50;;;;;;;7.77;2.00;;;;;;;9.25;83.13;101560.72;5055690;28;20229;-70
2021/12/19 03:34:16;;;;;;;5.07;1.83;;;;;;;8.85;83.29;101554.13;5036351;28;20570;-70
2021/12/19 03:36:41;;;;;;;3.60;1.53;;;;;;;8.83;83.26;101547.97;5055533;28;20627;-70
2021/12/19 03:39:14;;;;;;;7.83;1.83;;;;;;;8.55;83.17;101558.72;5020802;28;20183;-70
2021/12/19 03:41:41;;;;;;;7.67;2.07;;;;;;;9.01;82.91;101550.03;5038400;28;20218;-70
2021/12/19 03:44:07;;;;;;;5.03;1.40;;;;;;;9.05;81.82;101532.13;5037327;28;20259;-70
2021/12/19 03:46:32;;;;;;;5.90;1.40;;;;;;;9.16;81.48;101529.09;5037321;28;20749;-69
2021/12/19 03:48:57;;;;;;;5.30;1.33;;;;;;;8.91;81.90;101523.75;5037619;28;20662;-70
2021/12/19 03:51:23;;;;;;;4.90;1.23;;;;;;;8.90;82.62;101544.19;5055024;28;20278;-69
2021/12/19 03:53:49;;;;;;;7.27;1.40;;;;;;;8.84;82.33;101516.91;5037159;28;20195;-69
2021/12/19 03:56:14;;;;;;;4.93;1.50;;;;;;;8.94;82.98;101503.25;5054789;28;20183;-70
2021/12/19 03:58:39;;;;;;;4.80;1.40;;;;;;;8.90;82.78;101506.91;5054863;28;20191;-70
2021/12/19 04:01:07;;;;;;;7.30;1.73;;;;;;;8.85;83.15;101534.63;5037138;28;20183;-70
2021/12/19 04:03:33;;;;;;;3.77;1.03;;;;;;;8.98;81.59;101504.88;5037440;28;20172;-70
2021/12/19 04:05:58;;;;;;;3.13;1.50;;;;;;;8.94;82.14;101491.72;5020182;28;20199;-69
2021/12/19 04:08:23;;;;;;;5.67;2.13;;;;;;;9.47;80.54;101503.06;5054604;28;20183;-70
2021/12/19 04:10:50;;;;;;;5.40;1.67;;;;;;;9.64;79.67;101500.59;5036719;28;20175;-69
2021/12/19 04:13:16;;;;;;;6.97;1.53;;;;;;;9.16;80.40;101467.84;5036765;28;20199;-69
2021/12/19 04:15:42;;;;;;;6.37;1.60;;;;;;;9.20;80.36;101488.97;5020299;28;20195;-69
2021/12/19 04:18:07;;;;;;;4.33;1.53;;;;;;;9.16;81.68;101505.13;5036723;28;20664;-70
2021/12/19 04:20:32;;;;;;;6.63;1.33;;;;;;;9.30;80.62;101479.72;5054468;28;20183;-69
2021/12/19 04:22:58;;;;;;;5.83;1.70;;;;;;;9.61;80.31;101499.88;5036826;28;20199;-70
2021/12/19 04:25:23;;;;;;;4.67;1.40;;;;;;;9.62;80.12;101491.81;5036489;28;20567;-69
2021/12/19 04:27:49;;;;;;;6.57;1.67;;;;;;;9.38;80.06;101493.63;5020310;28;20171;-70
2021/12/19 04:30:21;;;;;;;6.43;1.50;;;;;;;9.34;81.35;101509.78;5020053;28;20172;-69
2021/12/19 04:32:56;;;;;;;5.67;1.60;;;;;;;9.02;81.15;101487.84;5036949;28;20265;-70
2021/12/19 04:35:21;;;;;;;3.93;1.37;;;;;;;8.97;81.34;101479.16;5021603;28;20245;-69
2021/12/19 04:40:55;;;;;;;5.57;1.37;;;;;;;9.61;79.69;101487.41;5054462;28;20190;-70
2021/12/19 04:54:24;;;;;;;5.70;1.50;;;;;;;9.67;79.72;101468.53;5038299;28;20614;-70
2021/12/19 05:15:52;;;;;;;7.57;1.37;;;;;;;9.72;78.84;101452.34;5047800;28;20221;-71
2021/12/19 05:18:19;;;;;;;4.70;1.57;;;;;;;9.77;78.34;101454.84;5041871;28;20179;-70
2021/12/19 05:20:54;;;;;;;4.67;1.60;;;;;;;9.93;78.07;101453.28;5053533;28;20607;-70
2021/12/19 05:23:27;;;;;;;7.60;1.50;;;;;;;9.65;78.40;101432.19;5035684;28;20171;-70
2021/12/19 05:25:52;;;;;;;3.33;1.10;;;;;;;9.81;78.74;101440.44;5053790;28;20231;-71
2021/12/19 05:28:18;;;;;;;6.07;1.83;;;;;;;9.73;79.04;101440.75;5035885;28;20215;-70
2021/12/19 05:30:43;;;;;;;7.80;1.60;;;;;;;9.89;77.98;101423.22;5035565;28;20267;-70
2021/12/19 05:33:08;;;;;;;7.00;1.57;;;;;;;9.79;77.67;101431.66;5053418;28;20190;-70
2021/12/19 05:36:03;;;;;;;9.07;1.77;;;;;;;9.79;77.86;101428.97;5053466;28;20203;-70
2021/12/19 05:46:40;;;;;;;8.30;1.70;;;;;;;10.15;75.89;101421.28;5053274;28;20678;-70
2021/12/19 05:49:06;;;;;;;8.10;1.50;;;;;;;9.73;76.37;101391.91;5035736;28;20175;-70
2021/12/19 05:51:32;;;;;;;6.70;1.73;;;;;;;9.83;77.12;101414.59;5035360;28;20181;-70
2021/12/19 05:53:58;;;;;;;5.27;1.67;;;;;;;9.62;77.36;101409.19;5035729;28;20176;-70
2021/12/19 05:56:23;;;;;;;5.70;1.50;;;;;;;9.80;76.87;101404.06;5053799;28;20197;-70
2021/12/19 05:58:48;;;;;;;8.80;2.20;;;;;;;10.00;75.85;101401.44;5057222;28;20182;-69
2021/12/19 06:01:14;;;;;;;7.03;1.93;;;;;;;10.08;75.84;101396.66;5039614;28;20701;-70
2021/12/19 06:03:39;;;;;;;11.77;2.17;;;;;;;9.63;76.57;101408.25;5039452;28;20179;-70
2021/12/19 06:06:04;;;;;;;4.37;1.47;;;;;;;10.08;75.95;101404.66;5057076;28;20202;-70
2021/12/19 06:08:29;;;;;;;7.07;1.47;;;;;;;9.76;76.15;101381.13;5039954;28;20176;-69
2021/12/19 06:10:55;;;;;;;8.43;1.83;;;;;;;10.12;75.24;101392.94;5039906;28;20539;-70
2021/12/19 06:13:20;;;;;;;7.77;1.60;;;;;;;10.32;75.35;101400.97;5039404;28;20221;-70
2021/12/19 06:15:49;;;;;;;3.73;1.30;;;;;;;10.28;75.50;101399.38;5056812;28;20184;-70
2021/12/19 06:18:15;;;;;;;7.17;1.47;;;;;;;9.78;76.61;101411.25;5039067;28;20175;-70
2021/12/19 06:20:40;;;;;;;8.63;1.53;;;;;;;10.00;76.35;101404.09;5056863;28;20172;-70
2021/12/19 06:23:08;;;;;;;12.77;2.27;;;;;;;9.74;76.37;101391.00;5056898;28;20633;-70
2021/12/19 06:25:33;;;;;;;5.17;1.67;;;;;;;10.16;75.94;101396.34;5039295;28;20192;-71
2021/12/19 06:27:58;;;;;;;10.70;1.80;;;;;;;9.94;76.58;101391.88;5038981;28;20183;-71
2021/12/19 06:30:24;;;;;;;6.90;1.83;;;;;;;10.18;75.80;101390.00;5056947;28;20616;-70
2021/12/19 06:32:49;;;;;;;9.20;1.67;;;;;;;9.72;77.28;101404.38;5056622;28;20532;-71
2021/12/19 06:35:18;;;;;;;9.90;1.77;;;;;;;9.88;76.92;101394.81;5064781;22;20368;-68
2021/12/19 06:37:46;;;;;;;6.50;1.60;;;;;;;9.99;76.40;101403.22;5058690;28;20189;-67
2021/12/19 06:40:14;;;;;;;9.67;1.93;;;;;;;10.24;76.19;101411.13;5077192;28;20193;-67
2021/12/19 06:42:39;;;;;;;8.77;1.73;;;;;;;9.85;75.99;101368.28;5076502;28;20183;-67
2021/12/19 06:45:06;;;;;;;5.37;1.83;;;;;;;9.96;76.46;101389.16;5076420;28;20306;-67
2021/12/19 06:47:31;;;;;;;12.77;1.83;;;;;;;10.24;75.90;101388.91;5076747;28;20190;-67
2021/12/19 06:49:56;;;;;;;7.90;1.50;;;;;;;9.95;75.86;101377.63;5076426;28;20628;-67
2021/12/19 06:52:22;;;;;;;8.27;1.43;;;;;;;10.03;76.42;101391.53;5058202;28;20179;-67
2021/12/19 06:54:47;;;;;;;8.83;1.50;;;;;;;9.84;76.25;101368.34;5076106;28;20175;-68
2021/12/19 06:57:12;;;;;;;7.47;1.50;;;;;;;10.09;75.92;101374.41;5076552;28;20198;-67
2021/12/19 06:59:38;;;;;;;12.20;1.67;;;;;;;9.63;75.60;101354.94;5075948;28;20547;-67
2021/12/19 07:02:03;;;;;;;7.07;1.90;;;;;;;9.76;76.52;101368.66;5076013;28;20643;-68
2021/12/19 07:04:29;;;;;;;11.07;1.87;;;;;;;9.76;76.33;101343.81;5058333;28;20199;-67
2021/12/19 07:06:54;;;;;;;10.70;1.93;;;;;;;9.96;75.52;101336.69;5075960;28;20280;-67
2021/12/19 07:09:19;;;;;;;6.93;1.43;;;;;;;9.84;76.43;101347.00;5075956;28;20178;-67
2021/12/19 07:11:45;;;;;;;9.00;1.50;;;;;;;10.13;74.68;101340.47;5058222;28;20175;-68
2021/12/19 07:14:10;;;;;;;9.27;1.77;;;;;;;9.93;75.11;101334.16;5076775;28;20190;-68
2021/12/19 07:16:35;;;;;;;7.87;1.70;;;;;;;9.91;75.61;101341.34;5075618;28;20200;-68
2021/12/19 07:19:00;;;;;;;5.50;1.57;;;;;;;10.02;75.92;101367.56;5076226;28;20182;-68
2021/12/19 07:21:28;;;;;;;10.47;1.90;;;;;;;10.24;75.18;101346.22;5075568;28;20767;-68
2021/12/19 07:23:53;;;;;;;6.23;1.50;;;;;;;10.02;75.42;101338.22;5076047;28;20186;-67
2021/12/19 07:26:18;;;;;;;8.17;1.40;;;;;;;9.83;76.22;101335.47;5075720;28;20230;-67
2021/12/19 07:28:46;;;;;;;6.70;1.83;;;;;;;9.70;76.45;101332.47;5057848;28;20171;-67
2021/12/19 07:31:11;;;;;;;10.13;1.53;;;;;;;10.07;75.61;101330.94;5075638;28;20262;-67
2021/12/19 07:33:36;;;;;;;7.10;1.90;;;;;;;9.91;76.12;101335.16;5075600;28;20530;-68
2021/12/19 07:36:02;;;;;;;6.60;1.50;;;;;;;9.74;76.45;101341.22;5075309;28;20205;-67
2021/12/19 07:38:39;;;;;;;5.93;1.70;;;;;;;10.19;75.04;101335.72;5057480;28;20547;-67
2021/12/19 07:41:05;;;;;;;11.33;1.97;;;;;;;9.82;76.52;101330.22;5075880;28;20615;-67
2021/12/19 07:43:30;;;;;;;8.57;2.40;;;;;;;10.15;75.32;101315.44;5075477;28;20182;-67
2021/12/19 07:45:56;;;;;;;8.47;2.30;;;;;;;9.85;75.96;101298.97;5057319;28;20198;-67
2021/12/19 07:48:21;;;;;;;9.33;2.10;;;;;;;9.71;76.64;101304.88;5075568;28;20221;-68
2021/12/19 07:50:47;;;;;;;11.63;1.90;;;;;;;9.91;76.30;101296.03;5057066;28;20178;-66
2021/12/19 07:53:12;;;;;;;8.70;1.80;;;;;;;9.81;76.34;101312.50;5075707;28;20257;-68
2021/12/19 07:55:38;;;;;;;9.47;1.73;;;;;;;10.05;76.46;101319.47;5074913;28;20604;-67
2021/12/19 07:58:03;;;;;;;12.20;1.87;;;;;;;10.22;75.99;101302.75;5075174;28;20182;-67
2021/12/19 08:00:28;;;;;;;9.10;1.50;;;;;;;9.84;77.33;101307.03;5057027;28;20761;-68
2021/12/19 08:02:53;;;;;;;8.50;1.80;;;;;;;9.79;76.79;101290.34;5074741;28;20228;-68
2021/12/19 08:05:21;;;;;;;11.97;3.27;;;;;;;10.10;76.29;101306.78;5074715;28;20199;-68
2021/12/19 08:07:48;;;;;;;10.67;2.20;;;;;;;9.59;77.32;101294.72;5057528;28;20183;-68
2021/12/19 08:11:39;;;;;;;8.17;2.07;;;;;;;9.75;77.15;101302.09;5075004;28;20167;-68
2021/12/19 08:13:01;;;;;;;12.73;3.23;;;;;;;9.60;78.24;101319.56;5074514;28;20726;-67
2021/12/19 08:15:27;;;;;;;8.43;3.37;;;;;;;9.64;77.66;101271.41;5056820;28;20270;-68
2021/12/19 08:17:52;;;;;;;6.27;2.00;;;;;;;9.48;77.22;101280.97;5074526;28;20672;-68
2021/12/19 08:20:17;;;;;;;5.47;1.90;;;;;;;9.81;77.50;101285.81;5074088;28;20241;-67
2021/12/19 08:22:44;;;;;;;8.70;2.33;;;;;;;9.81;77.68;101284.03;5074798;28;20210;-67
2021/12/19 08:25:09;;;;;;;8.17;2.00;;;;;;;9.22;77.75;101262.50;5074488;28;20210;-67
2021/12/19 08:27:36;;;;;;;10.50;1.93;;;;;;;10.04;76.65;101261.72;5074909;28;20535;-67
2021/12/19 08:30:07;;;;;;;7.77;1.93;;;;;;;9.94;76.94;101269.22;5056745;28;20191;-68
2021/12/19 08:32:32;;;;;;;10.30;2.43;;;;;;;9.76;76.73;101262.03;5056277;28;20607;-68
2021/12/19 08:34:57;;;;;;;7.40;2.20;;;;;;;9.69;77.15;101266.75;5074528;28;20236;-68
2021/12/19 08:37:23;;;;;;;12.50;2.07;;;;;;;9.62;77.38;101249.28;5074230;28;20169;-68
2021/12/19 08:39:48;;;;;;;8.57;2.00;;;;;;;9.50;78.01;101264.91;5056295;28;20535;-67
2021/12/19 08:42:14;;;;;;;9.97;2.40;;;;;;;9.57;78.36;101283.25;5074134;28;20171;-68
2021/12/19 08:44:39;;;;;;;9.87;2.27;;;;;;;9.87;76.95;101253.56;5074379;28;20649;-68
2021/12/19 08:47:05;;;;;;;9.67;1.60;;;;;;;9.38;78.34;101252.97;5074468;28;20206;-67
2021/12/19 08:49:30;;;;;;;10.17;1.80;;;;;;;9.58;78.18;101255.66;5074768;28;20185;-68
2021/12/19 08:51:56;;;;;;;9.53;2.00;;;;;;;9.79;77.75;101275.22;5074186;28;20179;-68
2021/12/19 08:54:22;;;;;;;8.30;2.37;;;;;;;9.58;78.75;101260.13;5056555;28;20719;-67
2021/12/19 08:56:48;;;;;;;9.63;2.40;;;;;;;9.26;78.88;101241.00;5074297;28;20304;-67
2021/12/19 08:59:13;;;;;;;10.30;2.40;;;;;;;9.80;78.33;101249.44;5056193;28;20179;-68
2021/12/19 09:01:41;;;;;;;19.23;2.73;;;;;;;10.06;77.08;101235.84;5074071;28;20175;-68
2021/12/19 09:04:06;;;;;;;8.67;2.60;;;;;;;9.76;77.60;101230.03;5039795;28;20243;-68
2021/12/19 09:06:32;;;;;;;13.53;1.80;;;;;;;9.94;76.58;101242.56;5056421;28;20695;-67
2021/12/19 09:08:57;;;;;;;10.23;2.73;;;;;;;10.04;77.16;101237.72;5074179;28;20191;-67
2021/12/19 09:11:22;;;;;;;12.07;2.10;;;;;;;10.08;76.28;101238.44;5074001;28;20273;-67
2021/12/19 09:13:48;;;;;;;9.77;2.07;;;;;;;10.12;76.88;101246.25;5073915;28;20175;-68
2021/12/19 09:16:13;;;;;;;10.80;2.00;;;;;;;9.51;77.50;101230.22;5074142;28;20210;-68
2021/12/19 09:18:39;;;;;;;13.40;2.50;;;;;;;9.89;78.12;101257.03;5074945;28;20654;-67
2021/12/19 09:21:04;;;;;;;14.00;2.70;;;;;;;10.48;75.73;101249.09;5056789;28;20268;-67
2021/12/19 09:23:29;;;;;;;7.33;1.60;;;;;;;10.05;76.98;101239.44;5074272;28;20171;-68
2021/12/19 09:25:55;;;;;;;9.23;1.77;;;;;;;9.58;77.88;101234.34;5073572;28;20199;-68
2021/12/19 09:28:20;;;;;;;19.20;3.33;;;;;;;9.90;76.50;101224.09;5074203;28;20658;-68
2021/12/19 09:30:45;;;;;;;6.77;1.53;;;;;;;10.05;76.60;101215.44;5073652;28;20182;-68
2021/12/19 09:33:11;;;;;;;11.07;3.07;;;;;;;10.26;75.58;101227.84;5073920;28;20183;-68
2021/12/19 09:35:36;;;;;;;12.50;3.13;;;;;;;10.43;75.62;101228.88;5073335;28;20607;-67
2021/12/19 09:38:03;;;;;;;13.50;2.80;;;;;;;9.93;76.38;101231.97;5073386;28;20182;-67
2021/12/19 09:40:37;;;;;;;13.17;2.70;;;;;;;10.11;76.02;101220.50;5073209;28;20284;-68
2021/12/19 09:43:08;;;;;;;11.87;2.10;;;;;;;10.35;75.11;101237.22;5056934;28;20155;-67
2021/12/19 09:45:34;;;;;;;11.87;2.47;;;;;;;10.02;76.53;101207.56;5055376;28;20675;-67
2021/12/19 09:47:59;;;;;;;7.17;2.47;;;;;;;10.09;76.72;101217.03;5073537;28;20250;-67
2021/12/19 09:50:27;;;;;;;14.83;2.40;;;;;;;9.80;77.08;101217.44;5056003;28;20175;-67
2021/12/19 09:52:53;;;;;;;8.03;2.53;;;;;;;10.16;77.14;101237.16;5055159;28;20642;-67
2021/12/19 09:55:21;;;;;;;12.07;2.60;;;;;;;10.49;76.13;101212.59;5038528;28;20210;-67
2021/12/19 09:57:51;;;;;;;12.90;3.43;;;;;;;10.28;76.68;101225.97;5038977;28;20178;-67
2021/12/19 10:00:18;;;;;;;10.40;2.00;;;;;;;10.17;76.68;101209.56;5073556;28;20161;-67
2021/12/19 10:02:43;;;;;;;8.33;2.30;;;;;;;10.69;75.14;101204.50;5038738;28;20202;-67
2021/12/19 10:05:27;;;;;;;13.57;2.33;;;;;;;10.40;75.82;101202.31;5072958;28;20659;-68
2021/12/19 10:07:58;;;;;;;17.33;2.30;;;;;;;10.21;76.32;101205.84;5055403;28;20619;-68
2021/12/19 10:10:55;;;;;;;13.53;2.70;;;;;;;10.52;75.91;101212.44;5073575;28;20163;-68
2021/12/19 10:13:37;;;;;;;8.63;2.10;;;;;;;10.33;76.24;101186.59;5073298;28;20159;-68
2021/12/19 10:16:24;;;;;;;16.77;2.57;;;;;;;10.80;75.47;101188.84;5073599;28;20187;-68
2021/12/19 10:18:51;;;;;;;12.00;2.33;;;;;;;10.58;76.44;101197.00;5039303;28;20174;-68
2021/12/19 10:21:18;;;;;;;13.07;2.70;;;;;;;9.92;78.71;101207.09;5073214;28;20217;-67
2021/12/19 10:23:44;;;;;;;9.43;1.97;;;;;;;10.54;76.02;101179.41;5073491;28;20631;-67
2021/12/19 10:26:10;;;;;;;16.00;2.37;;;;;;;10.42;76.30;101196.00;5073619;28;20199;-67
2021/12/19 10:28:52;;;;;;;14.03;2.37;;;;;;;10.40;77.25;101183.63;5073662;28;20305;-69
2021/12/19 10:31:17;;;;;;;8.63;2.47;;;;;;;9.80;78.83;101189.00;5056345;28;20747;-68
2021/12/19 10:33:43;;;;;;;10.70;2.17;;;;;;;10.08;78.53;101180.63;5074332;28;20258;-68
2021/12/19 10:36:09;;;;;;;10.70;2.70;;;;;;;10.05;78.67;101180.78;5055601;28;20203;-67
2021/12/19 10:38:42;;;;;;;17.67;2.97;;;;;;;9.92;79.71;101184.91;5074012;28;20218;-67
2021/12/19 10:41:07;;;;;;;15.60;2.63;;;;;;;10.30;78.00;101162.72;5057573;28;20159;-67
2021/12/19 10:43:33;;;;;;;14.47;2.60;;;;;;;9.78;79.77;101160.69;5076564;28;20239;-67
2021/12/19 10:46:04;;;;;;;15.27;2.77;;;;;;;9.71;80.52;101160.09;5066596;28;20206;-67
2021/12/19 10:48:36;;;;;;;15.40;3.00;;;;;;;10.04;79.47;101141.72;5060725;28;20250;-68
2021/12/19 10:51:16;;;;;;;10.47;2.80;;;;;;;9.89;79.02;101150.38;5077460;28;20182;-68
2021/12/19 10:53:45;;;;;;;14.63;2.40;;;;;;;10.24;78.96;101136.34;5077584;28;20167;-68
2021/12/19 10:56:16;;;;;;;15.47;3.20;;;;;;;9.99;80.06;101133.03;5077201;28;20190;-67
2021/12/19 10:58:57;;;;;;;10.13;2.07;;;;;;;9.94;79.35;101140.38;5077263;28;20155;-67
2021/12/19 11:01:29;;;;;;;14.97;2.73;;;;;;;10.23;79.64;101129.28;5060201;28;20527;-67
2021/12/19 11:04:09;;;;;;;14.43;2.77;;;;;;;10.09;80.02;101129.03;5076975;28;20171;-67
2021/12/19 11:06:38;;;;;;;18.20;3.07;;;;;;;10.36;79.26;101134.88;5076405;28;20205;-67
2021/12/19 11:09:14;;;;;;;14.23;2.43;;;;;;;10.21;78.44;101108.94;5058904;28;20193;-67
2021/12/19 11:11:51;;;;;;;9.77;2.03;;;;;;;10.36;79.30;101123.34;5076893;28;20167;-67
2021/12/19 11:14:22;;;;;;;14.93;2.53;;;;;;;10.13;78.77;101109.28;5076622;28;20635;-67
2021/12/19 11:16:49;;;;;;;12.37;2.33;;;;;;;9.87;80.35;101117.59;5076475;28;20220;-67
2021/12/19 11:19:15;;;;;;;15.23;2.73;;;;;;;10.45;78.64;101101.59;5058702;28;20175;-68
2021/12/19 11:21:41;;;;;;;10.77;2.67;;;;;;;9.93;79.75;101090.66;5076761;28;20724;-68
2021/12/19 11:24:13;;;;;;;13.03;3.50;;;;;;;10.63;78.46;101093.53;5076189;28;20643;-68
2021/12/19 11:26:40;;;;;;;9.90;2.33;;;;;;;10.03;78.16;101090.19;5076721;28;20199;-67
2021/12/19 11:29:07;;;;;;;12.23;2.83;;;;;;;10.88;76.09;101079.00;5058298;28;20170;-68
2021/12/19 11:31:33;;;;;;;17.47;3.63;;;;;;;10.71;77.68;101089.63;5076261;28;20542;-68
2021/12/19 11:34:03;;;;;;;12.30;2.93;;;;;;;10.53;77.44;101083.41;5076020;28;20254;-69
2021/12/19 11:36:38;;;;;;;10.60;2.40;;;;;;;10.71;77.14;101081.63;5076084;28;20199;-68
2021/12/19 11:39:05;;;;;;;15.77;2.80;;;;;;;10.71;76.84;101087.81;5058652;28;20162;-68
2021/12/19 11:41:31;;;;;;;9.57;2.23;;;;;;;10.24;77.79;101058.97;5058144;28;20181;-69
2021/12/19 11:44:00;;;;;;;10.63;2.47;;;;;;;10.79;75.38;101061.63;5058466;28;20241;-68
2021/12/19 11:46:46;;;;;;;16.00;3.37;;;;;;;10.67;76.43;101075.56;5076087;28;20244;-68
2021/12/19 11:49:17;;;;;;;14.93;2.90;;;;;;;10.61;76.09;101044.72;5057781;28;20179;-67
2021/12/19 11:51:42;;;;;;;11.47;2.63;;;;;;;10.45;76.90;101062.44;5057705;28;20189;-68
2021/12/19 11:54:13;;;;;;;10.13;2.33;;;;;;;11.44;74.09;101059.16;5074698;28;20172;-68
2021/12/19 11:56:38;;;;;;;11.83;2.83;;;;;;;10.90;75.71;101063.75;5075593;28;20769;-68
2021/12/19 11:59:17;;;;;;;18.57;2.50;;;;;;;10.61;74.92;101030.50;5057735;28;20167;-68
2021/12/19 12:01:43;;;;;;;14.47;2.13;;;;;;;11.29;73.41;101055.50;5075662;28;20500;-68
2021/12/19 12:04:17;;;;;;;12.33;2.53;;;;;;;10.47;75.70;101062.34;5075770;28;20195;-67
2021/12/19 12:06:53;;;;;;;20.30;2.97;;;;;;;11.00;75.22;101053.47;5058072;28;20198;-67
2021/12/19 12:09:32;;;;;;;11.30;2.20;;;;;;;10.86;74.75;101040.81;5075934;28;20163;-67
2021/12/19 12:12:01;;;;;;;12.93;2.60;;;;;;;10.71;75.93;101031.75;5075776;28;20159;-68
2021/12/19 12:14:28;;;;;;;11.83;2.17;;;;;;;10.67;75.96;101038.19;5075704;28;20564;-67
2021/12/19 12:17:01;;;;;;;12.53;2.27;;;;;;;11.43;73.63;101031.56;5057433;28;20199;-67
2021/12/19 12:19:59;;;;;;;9.97;2.63;;;;;;;10.57;76.44;101034.25;5075423;28;20175;-68
2021/12/19 12:22:44;;;;;;;13.10;2.50;;;;;;;11.11;75.14;101035.06;5057861;28;20205;-67
2021/12/19 12:25:19;;;;;;;7.83;1.97;;;;;;;11.08;74.58;101017.38;5058955;28;20606;-67
2021/12/19 12:27:55;;;;;;;12.53;2.43;;;;;;;10.56;75.07;101005.84;5056994;28;20167;-68
2021/12/19 12:30:34;;;;;;;12.07;2.20;;;;;;;11.09;75.16;101026.25;5057724;28;20165;-67